Time;durP1;ratioP1;P1;durP2;ratioP2;P2;SDS_P1;SDS_P2;PMS_P1;PMS_P2;Temp;Humidity;BMP_temperature;BMP_pressure;BME280_temperature;BME280_humidity;BME280_pressure;Samples;Min_cycle;Max_cycle;Signal;HPM_P1;HPM_P2
2021/09/15 00:01:12;;;;;;;21.25;12.15;;;;;;;18.06;81.39;100977.84;1741685;82;21023;-60
2021/09/15 00:03:39;;;;;;;22.75;11.43;;;;;;;18.06;81.51;100980.55;1741493;82;21091;-61
2021/09/15 00:06:40;;;;;;;30.43;12.33;;;;;;;18.02;81.42;100984.82;1752166;81;21094;-61
2021/09/15 00:09:07;;;;;;;19.48;11.68;;;;;;;17.99;81.45;100984.09;1748456;81;21063;-61
2021/09/15 00:11:55;;;;;;;19.17;11.75;;;;;;;17.96;81.47;100990.58;1737606;81;21111;-61
2021/09/15 00:14:22;;;;;;;20.00;10.98;;;;;;;17.94;81.50;100981.66;1711118;82;21494;-61
2021/09/15 00:16:50;;;;;;;32.75;11.85;;;;;;;17.93;81.50;100987.20;1702245;84;39282;-61
2021/09/15 00:19:19;;;;;;;21.87;11.20;;;;;;;17.90;81.36;100990.97;1701920;83;21164;-62
2021/09/15 00:22:25;;;;;;;27.98;11.80;;;;;;;17.90;81.39;100988.25;1708229;82;21091;-61
2021/09/15 00:30:53;;;;;;;25.40;14.80;;;;;;;17.86;81.26;100992.13;1727852;80;21935;-61
2021/09/15 00:33:35;;;;;;;24.98;13.53;;;;;;;17.83;81.18;100984.19;1707043;82;21070;-61
2021/09/15 00:36:22;;;;;;;27.17;14.03;;;;;;;17.81;80.82;100987.48;1704281;82;21623;-61
2021/09/15 00:41:49;;;;;;;22.95;10.85;;;;;;;17.82;80.45;100986.52;1710797;83;21093;-61
2021/09/15 00:44:16;;;;;;;29.40;11.43;;;;;;;17.84;79.88;100988.64;1710976;82;21824;-61
2021/09/15 00:46:45;;;;;;;24.10;10.90;;;;;;;17.87;79.73;100991.16;1722970;82;21526;-60
2021/09/15 00:49:13;;;;;;;26.70;11.80;;;;;;;17.89;79.39;100990.08;1697069;83;21069;-60
2021/09/15 00:51:43;;;;;;;29.25;13.03;;;;;;;17.89;79.22;100992.78;1710940;83;21776;-62
2021/09/15 00:54:55;;;;;;;22.45;14.45;;;;;;;17.88;79.33;100982.05;1711459;83;21065;-61
2021/09/15 01:00:12;;;;;;;24.07;11.33;;;;;;;17.83;79.83;100990.47;1741554;82;20960;-60
2021/09/15 01:02:41;;;;;;;22.58;10.38;;;;;;;17.81;79.66;100988.84;1741663;81;21031;-62
2021/09/15 01:05:11;;;;;;;24.85;9.75;;;;;;;17.83;79.13;100988.25;1731062;82;21069;-63
2021/09/15 01:07:40;;;;;;;30.27;9.98;;;;;;;17.86;78.73;100985.34;1701332;82;21148;-62
2021/09/15 01:10:08;;;;;;;21.87;10.00;;;;;;;17.89;77.96;100990.08;1683559;82;21472;-61
2021/09/15 01:12:38;;;;;;;18.20;9.50;;;;;;;17.93;77.46;100988.56;1712545;83;21038;-61
2021/09/15 01:18:20;;;;;;;20.35;8.53;;;;;;;18.00;76.32;100981.27;1669847;82;21800;-62
2021/09/15 01:21:23;;;;;;;17.67;9.38;;;;;;;18.08;74.68;100994.89;1719170;83;21018;-62
2021/09/15 01:23:59;;;;;;;20.02;9.63;;;;;;;18.17;74.37;100991.58;1711718;83;21090;-61
2021/09/15 01:26:34;;;;;;;21.75;9.48;;;;;;;18.22;74.21;100992.66;1655671;85;21531;-61
2021/09/15 01:29:03;;;;;;;22.52;9.45;;;;;;;18.21;74.42;100993.13;1617336;86;21123;-61
2021/09/15 01:31:30;;;;;;;44.63;10.82;;;;;;;18.16;74.75;100992.55;1702803;82;21408;-56
2021/09/15 01:34:07;;;;;;;46.98;11.70;;;;;;;18.13;75.00;100987.33;1702024;84;21127;-55
2021/09/15 01:36:35;;;;;;;57.03;12.45;;;;;;;18.12;75.11;100992.36;1722298;82;21516;-56
2021/09/15 01:39:04;;;;;;;54.67;12.60;;;;;;;18.11;75.15;100994.69;1741507;81;21022;-61
2021/09/15 01:41:31;;;;;;;18.62;10.72;;;;;;;18.06;75.43;101003.11;1713890;82;21106;-62
2021/09/15 01:44:07;;;;;;;32.83;10.13;;;;;;;17.99;75.67;101003.94;1702524;84;21077;-63
2021/09/15 01:46:49;;;;;;;27.05;9.93;;;;;;;17.93;76.01;101000.27;1701897;82;21062;-55
2021/09/15 01:49:17;;;;;;;32.10;10.88;;;;;;;17.89;75.85;100997.36;1702011;84;21121;-56
2021/09/15 01:51:44;;;;;;;29.60;9.73;;;;;;;17.86;75.99;101001.12;1701963;83;21117;-57
2021/09/15 01:56:55;;;;;;;18.32;9.58;;;;;;;17.82;75.46;100996.86;1701790;82;21149;-56
2021/09/15 01:59:46;;;;;;;;;;;;;;;17.83;75.41;101000.45;1715253;82;21129;-55
2021/09/15 02:05:08;;;;;;;18.65;9.35;;;;;;;17.85;75.58;101005.30;1736882;81;21067;-62
2021/09/15 02:07:52;;;;;;;23.52;9.15;;;;;;;17.83;75.49;101006.73;1735348;81;22129;-60
2021/09/15 02:13:16;;;;;;;34.25;9.50;;;;;;;17.89;74.91;101002.78;1696779;84;21118;-60
2021/09/15 02:16:01;;;;;;;36.88;10.82;;;;;;;17.96;74.30;101004.63;1725967;81;21262;-60
2021/09/15 02:21:07;;;;;;;25.12;8.83;;;;;;;18.09;72.61;101011.55;1722887;81;21026;-63
2021/09/15 02:23:44;;;;;;;17.23;10.13;;;;;;;18.13;72.92;101015.81;1715932;81;21073;-60
2021/09/15 02:26:35;;;;;;;20.60;8.85;;;;;;;18.09;72.77;101018.34;1739302;81;21399;-55
2021/09/15 02:32:08;;;;;;;51.50;11.57;;;;;;;18.08;72.53;101009.31;1696252;82;21131;-62
2021/09/15 02:34:53;;;;;;;71.05;12.03;;;;;;;18.08;72.90;101012.52;1696386;84;21118;-55
2021/09/15 02:40:37;;;;;;;37.20;11.50;;;;;;;18.02;73.22;101013.30;1744660;82;20946;-62
2021/09/15 02:43:06;;;;;;;30.50;11.15;;;;;;;17.98;73.33;101023.90;1742567;81;21122;-57
2021/09/15 02:45:37;;;;;;;22.10;10.98;;;;;;;17.87;74.62;101027.77;1731376;81;21114;-57
2021/09/15 02:48:21;;;;;;;39.10;10.48;;;;;;;17.75;74.53;101029.40;1726090;83;21016;-57
2021/09/15 02:50:50;;;;;;;30.95;11.00;;;;;;;17.69;74.39;101032.49;1724676;81;21043;-60
2021/09/15 02:53:21;;;;;;;25.30;10.88;;;;;;;17.67;75.14;101033.04;1648610;86;21587;-61
2021/09/15 02:56:02;;;;;;;27.85;12.20;;;;;;;17.62;75.68;101038.77;1693561;82;21451;-61
2021/09/15 03:04:23;;;;;;;25.43;10.65;;;;;;;17.39;76.66;101049.61;1753796;81;21383;-54
2021/09/15 03:06:58;;;;;;;31.48;11.38;;;;;;;17.35;76.86;101048.05;1762531;80;21497;-62
2021/09/15 03:09:26;;;;;;;30.12;13.20;;;;;;;17.32;77.13;101057.22;1747117;80;21596;-56
2021/09/15 03:11:53;;;;;;;32.05;13.15;;;;;;;17.28;77.38;101059.72;1740527;81;21115;-56
2021/09/15 03:14:22;;;;;;;26.00;12.07;;;;;;;17.24;77.55;101059.52;1734767;82;21468;-60
2021/09/15 03:16:54;;;;;;;22.27;10.65;;;;;;;17.21;77.34;101059.70;1736713;81;21045;-60
2021/09/15 03:19:40;;;;;;;31.12;11.05;;;;;;;17.16;77.44;101056.78;1740227;80;21095;-55
2021/09/15 03:22:07;;;;;;;26.37;14.50;;;;;;;17.13;77.55;101063.73;1716722;81;21911;-55
2021/09/15 03:24:34;;;;;;;26.75;13.22;;;;;;;17.10;77.64;101058.97;1736437;82;21084;-55
2021/09/15 03:27:03;;;;;;;29.30;12.33;;;;;;;17.13;77.56;101067.80;1736783;82;20933;-61
2021/09/15 03:29:36;;;;;;;23.73;10.63;;;;;;;17.16;77.09;101064.91;1727709;82;21093;-61
2021/09/15 03:32:05;;;;;;;31.02;10.18;;;;;;;17.20;76.87;101070.14;1697208;83;21128;-55
2021/09/15 03:34:32;;;;;;;32.15;10.10;;;;;;;17.20;76.41;101067.44;1740955;81;21091;-55
2021/09/15 03:40:05;;;;;;;34.63;10.88;;;;;;;17.23;76.10;101074.89;1736201;82;21506;-57
2021/09/15 03:42:39;;;;;;;36.33;9.60;;;;;;;17.25;75.13;101070.75;1736486;81;21074;-54
2021/09/15 03:45:09;;;;;;;25.90;10.53;;;;;;;17.39;74.91;101071.29;1738597;81;21078;-61
2021/09/15 03:50:13;;;;;;;54.35;12.13;;;;;;;17.51;74.23;101085.48;1714589;81;21110;-62
2021/09/15 03:52:40;;;;;;;48.75;10.95;;;;;;;17.54;73.96;101087.13;1744942;80;21060;-56
2021/09/15 04:03:06;;;;;;;26.93;10.43;;;;;;;17.58;73.65;101098.20;1746015;81;21028;-55
2021/09/15 04:05:35;;;;;;;36.00;9.55;;;;;;;17.60;73.85;101097.63;1747849;82;20972;-55
2021/09/15 04:08:04;;;;;;;24.92;9.90;;;;;;;17.63;73.69;101107.40;1747979;81;21020;-59
2021/09/15 04:10:31;;;;;;;19.55;10.43;;;;;;;17.68;73.90;101107.99;1751185;81;21090;-56
2021/09/15 04:13:01;;;;;;;25.10;11.50;;;;;;;17.68;74.32;101099.39;1758188;81;21019;-56
2021/09/15 04:15:30;;;;;;;21.68;12.00;;;;;;;17.69;74.52;101099.78;1747963;80;21482;-58
2021/09/15 04:18:04;;;;;;;26.75;13.28;;;;;;;17.70;74.61;101108.30;1747060;81;21713;-57
2021/09/15 04:20:49;;;;;;;30.17;12.82;;;;;;;17.74;74.47;101111.22;1746610;82;20984;-61
2021/09/15 04:23:27;;;;;;;21.70;11.75;;;;;;;17.77;74.76;101111.53;1746694;80;21019;-57
2021/09/15 04:33:51;;;;;;;56.13;11.55;;;;;;;17.92;73.82;101116.52;1751771;80;21306;-58
2021/09/15 04:36:27;;;;;;;32.98;12.60;;;;;;;18.00;73.57;101119.62;1769543;80;21055;-57
2021/09/15 04:38:54;;;;;;;34.73;11.15;;;;;;;18.09;72.85;101121.44;1743677;81;21134;-62
2021/09/15 04:41:36;;;;;;;27.27;11.68;;;;;;;18.17;72.10;101119.11;1726148;82;21027;-61
2021/09/15 04:46:56;;;;;;;28.92;10.85;;;;;;;18.38;71.86;101128.26;1754074;81;21021;-56
2021/09/15 04:49:42;;;;;;;27.85;10.55;;;;;;;18.50;70.65;101132.05;1757055;80;21047;-60
2021/09/15 04:52:18;;;;;;;29.67;11.65;;;;;;;18.60;70.14;101129.16;1765717;81;21069;-59
2021/09/15 04:57:44;;;;;;;42.48;12.00;;;;;;;18.87;70.05;101139.23;1758060;80;21023;-56
2021/09/15 05:00:14;;;;;;;29.00;11.25;;;;;;;18.98;69.63;101141.26;1743556;81;21518;-56
2021/09/15 05:10:29;;;;;;;24.85;11.18;;;;;;;19.96;66.79;101147.99;1757495;81;20991;-56
2021/09/15 05:12:57;;;;;;;20.23;11.03;;;;;;;20.27;65.79;101154.05;1752128;81;21087;-56
2021/09/15 05:15:25;;;;;;;12.90;9.38;;;;;;;20.62;65.19;101163.44;1702027;81;21078;-61
2021/09/15 05:17:55;;;;;;;20.95;9.90;;;;;;;20.88;63.60;101156.13;1741741;81;21171;-60
2021/09/15 05:20:35;;;;;;;18.10;9.58;;;;;;;21.00;63.53;101166.66;1754630;80;21349;-56
2021/09/15 05:23:21;;;;;;;17.42;10.30;;;;;;;21.11;63.07;101167.23;1744417;82;21103;-55
2021/09/15 05:25:51;;;;;;;19.12;9.80;;;;;;;21.14;63.06;101182.00;1744320;81;21434;-59
2021/09/15 05:28:20;;;;;;;16.02;8.80;;;;;;;21.11;63.65;101174.53;1743578;81;21028;-56
2021/09/15 05:33:20;;;;;;;18.90;10.25;;;;;;;21.15;63.81;101184.22;1730563;82;21105;-57
2021/09/15 05:36:01;;;;;;;18.77;9.10;;;;;;;21.18;64.08;101190.33;1743716;82;21046;-57
2021/09/15 05:38:33;;;;;;;19.87;9.60;;;;;;;21.22;64.19;101187.38;1716818;81;21614;-55
2021/09/15 05:41:11;;;;;;;18.62;9.85;;;;;;;21.26;64.51;101190.25;1733900;80;21121;-57
2021/09/15 05:43:40;;;;;;;15.38;8.65;;;;;;;21.28;64.87;101195.09;1734299;81;21036;-60
2021/09/15 05:46:08;;;;;;;15.48;8.10;;;;;;;21.35;64.87;101204.59;1759012;79;21046;-57
2021/09/15 05:48:35;;;;;;;22.25;9.38;;;;;;;21.39;64.75;101202.00;1756578;80;21118;-61
2021/09/15 05:51:02;;;;;;;12.43;8.30;;;;;;;21.44;64.83;101198.44;1744706;79;21080;-60
2021/09/15 05:53:32;;;;;;;18.65;9.03;;;;;;;21.46;65.33;101204.64;1735421;81;21035;-56
2021/09/15 06:01:26;;;;;;;14.83;8.65;;;;;;;21.69;65.48;101204.81;1752110;80;21607;-61
2021/09/15 06:03:55;;;;;;;15.93;8.78;;;;;;;21.80;65.77;101205.88;1751007;80;21480;-61
2021/09/15 06:12:05;;;;;;;17.37;8.28;;;;;;;21.84;64.57;101216.94;1745906;81;21572;-62
2021/09/15 06:14:33;;;;;;;14.38;7.97;;;;;;;21.85;65.12;101207.76;1737452;80;21063;-62
2021/09/15 06:19:35;;;;;;;13.60;8.58;;;;;;;22.03;63.95;101206.36;1750564;80;21078;-62
2021/09/15 06:22:11;;;;;;;21.42;9.33;;;;;;;22.17;63.77;101205.30;1736847;80;21105;-62
2021/09/15 06:24:42;;;;;;;14.38;8.73;;;;;;;22.25;63.71;101212.02;1750035;80;21474;-60
2021/09/15 06:27:09;;;;;;;15.35;8.30;;;;;;;22.27;62.58;101213.65;1748531;80;21155;-60
2021/09/15 06:29:38;;;;;;;21.02;8.43;;;;;;;22.51;60.70;101203.19;1749809;80;21126;-60
2021/09/15 06:34:57;;;;;;;19.50;8.90;;;;;;;23.24;59.32;101213.81;1743746;80;21067;-62
2021/09/15 06:37:24;;;;;;;13.43;8.68;;;;;;;23.71;58.46;101220.97;1753029;80;21060;-61
2021/09/15 06:39:52;;;;;;;15.38;8.38;;;;;;;24.32;56.48;101205.31;1729386;81;21043;-57
2021/09/15 06:42:19;;;;;;;16.25;8.08;;;;;;;24.89;55.04;101215.95;1748885;80;21543;-57
2021/09/15 06:44:56;;;;;;;11.00;8.13;;;;;;;25.15;53.36;101231.06;1719443;81;21102;-58
2021/09/15 06:47:23;;;;;;;13.58;7.72;;;;;;;25.07;53.52;101213.91;1729275;81;21560;-56
2021/09/15 06:49:50;;;;;;;13.40;7.87;;;;;;;25.08;53.40;101221.66;1700579;81;21151;-56
2021/09/15 06:52:18;;;;;;;18.07;8.20;;;;;;;25.33;53.24;101218.95;1721675;81;21120;-62
2021/09/15 06:54:49;;;;;;;17.37;8.30;;;;;;;25.41;52.26;101222.34;1747298;80;21109;-62
2021/09/15 06:57:17;;;;;;;15.75;8.33;;;;;;;25.10;52.49;101221.02;1755566;80;21058;-60
2021/09/15 06:59:45;;;;;;;16.70;8.08;;;;;;;24.69;53.35;101216.30;1748076;80;21614;-62
2021/09/15 07:02:17;;;;;;;18.30;8.38;;;;;;;24.31;54.60;101221.88;1752979;80;21311;-56
2021/09/15 07:04:44;;;;;;;13.03;7.83;;;;;;;23.91;56.06;101220.65;1741431;80;22332;-57
2021/09/15 07:07:13;;;;;;;15.68;8.48;;;;;;;23.62;56.96;101223.98;1733995;80;21793;-56
2021/09/15 07:09:40;;;;;;;15.03;8.13;;;;;;;23.40;57.80;101224.39;1728501;81;21075;-56
2021/09/15 07:12:12;;;;;;;16.37;8.70;;;;;;;23.20;58.57;101216.91;1737428;80;21138;-58
2021/09/15 07:14:53;;;;;;;17.98;8.40;;;;;;;23.11;59.29;101216.67;1762416;80;21077;-56
2021/09/15 07:17:21;;;;;;;12.90;7.62;;;;;;;23.09;59.38;101213.68;1750805;80;21109;-60
2021/09/15 07:19:50;;;;;;;13.62;8.20;;;;;;;23.03;59.71;101216.41;1761776;79;21495;-62
2021/09/15 07:22:21;;;;;;;11.88;8.58;;;;;;;22.99;60.35;101217.66;1758272;79;21066;-60
2021/09/15 07:24:51;;;;;;;16.82;8.58;;;;;;;22.98;60.50;101227.70;1764873;79;21097;-62
2021/09/15 07:30:02;;;;;;;9.98;7.62;;;;;;;22.79;60.19;101233.78;1755362;79;21098;-57
2021/09/15 07:32:29;;;;;;;14.28;8.30;;;;;;;22.70;59.62;101222.23;1736641;80;21123;-57
2021/09/15 07:37:27;;;;;;;12.90;7.65;;;;;;;22.62;61.78;101221.47;1756496;80;21802;-61
2021/09/15 07:39:54;;;;;;;13.93;8.20;;;;;;;22.55;62.40;101214.24;1760069;79;21084;-56
2021/09/15 07:42:21;;;;;;;14.13;8.23;;;;;;;22.56;62.13;101220.08;1753582;79;21141;-57
2021/09/15 07:47:19;;;;;;;14.15;7.90;;;;;;;22.58;62.05;101218.61;1732891;80;21072;-56
2021/09/15 07:49:46;;;;;;;10.43;7.53;;;;;;;22.61;61.71;101217.84;1735258;80;21819;-56
2021/09/15 07:57:26;;;;;;;12.63;7.55;;;;;;;22.55;62.18;101216.98;1761043;80;21040;-56
2021/09/15 08:02:43;;;;;;;11.20;7.12;;;;;;;22.52;62.19;101225.42;1764605;79;21148;-56
2021/09/15 08:07:56;;;;;;;15.43;7.28;;;;;;;22.44;61.81;101224.61;1665380;84;21095;-66
2021/09/15 08:18:29;;;;;;;15.83;7.85;;;;;;;22.57;61.82;101209.52;1700719;83;21090;-62
2021/09/15 08:20:56;;;;;;;12.05;7.35;;;;;;;22.62;61.99;101221.47;1705063;83;21051;-56
2021/09/15 08:23:35;;;;;;;10.23;7.28;;;;;;;22.59;61.10;101218.47;1716924;82;21051;-62
2021/09/15 08:26:03;;;;;;;14.18;7.60;;;;;;;22.59;61.29;101219.84;1723532;81;21107;-62
2021/09/15 08:28:35;;;;;;;15.93;7.53;;;;;;;22.60;61.47;101209.28;1727718;81;21138;-62
2021/09/15 08:31:05;;;;;;;11.35;7.28;;;;;;;22.69;61.94;101227.33;1719687;82;21260;-62
2021/09/15 08:33:34;;;;;;;15.30;7.20;;;;;;;22.75;61.57;101222.22;1713383;82;21482;-62
2021/09/15 08:38:48;;;;;;;14.40;7.70;;;;;;;22.73;61.44;101217.37;1708639;82;21131;-58
2021/09/15 08:41:33;;;;;;;10.38;7.70;;;;;;;22.72;61.65;101227.93;1709742;83;21142;-57
2021/09/15 08:44:00;;;;;;;12.13;7.85;;;;;;;22.72;61.89;101229.81;1688934;83;21347;-57
2021/09/15 08:46:34;;;;;;;12.70;8.00;;;;;;;22.64;61.41;101228.16;1687517;83;21130;-58
2021/09/15 08:54:14;;;;;;;10.18;6.72;;;;;;;22.41;62.55;101230.32;1703464;81;21141;-61
2021/09/15 08:59:10;;;;;;;8.45;6.78;;;;;;;22.56;62.59;101224.69;1685334;83;22248;-57
2021/09/15 09:01:39;;;;;;;8.90;6.80;;;;;;;22.59;62.20;101226.66;1686155;83;21032;-58
2021/09/15 09:04:06;;;;;;;13.13;7.12;;;;;;;22.61;61.81;101236.98;1706391;82;21113;-58
2021/09/15 09:06:34;;;;;;;11.15;7.10;;;;;;;22.65;61.96;101236.73;1709533;81;21082;-65
2021/09/15 09:09:07;;;;;;;11.85;6.65;;;;;;;22.65;61.83;101237.62;1717802;81;20987;-60
2021/09/15 09:11:44;;;;;;;11.70;7.10;;;;;;;22.62;61.08;101236.50;1717016;81;21110;-63
2021/09/15 09:14:11;;;;;;;11.88;6.35;;;;;;;22.60;61.03;101235.75;1722903;81;20991;-62
2021/09/15 09:16:45;;;;;;;10.58;6.78;;;;;;;22.63;60.96;101240.97;1723141;81;21553;-62
2021/09/15 09:19:19;;;;;;;14.60;6.47;;;;;;;22.66;60.91;101248.03;1687629;82;21099;-63
2021/09/15 09:21:52;;;;;;;14.47;6.03;;;;;;;22.58;59.90;101236.37;1724139;81;21048;-62
2021/09/15 09:24:24;;;;;;;12.68;6.17;;;;;;;22.53;59.83;101228.52;1699839;83;21183;-62
2021/09/15 09:27:03;;;;;;;8.85;6.22;;;;;;;22.56;59.89;101226.91;1684381;83;21684;-61
2021/09/15 09:29:40;;;;;;;14.18;6.28;;;;;;;22.60;58.36;101231.14;1701665;83;21115;-62
2021/09/15 09:32:10;;;;;;;9.35;5.87;;;;;;;22.64;57.66;101244.08;1702840;83;21137;-62
2021/09/15 09:34:46;;;;;;;13.08;6.00;;;;;;;22.69;57.65;101232.79;1703996;84;21574;-62
2021/09/15 09:37:18;;;;;;;15.83;6.85;;;;;;;22.71;57.97;101235.75;1668094;84;21163;-61
2021/09/15 09:39:57;;;;;;;11.48;6.33;;;;;;;22.71;57.96;101230.80;1674017;83;21705;-62
2021/09/15 09:42:32;;;;;;;10.58;5.87;;;;;;;22.73;58.57;101237.02;1696076;84;21635;-61
2021/09/15 09:45:12;;;;;;;14.65;7.45;;;;;;;22.79;58.05;101228.31;1706628;83;21174;-63
2021/09/15 09:47:59;;;;;;;13.68;6.08;;;;;;;22.79;58.12;101221.48;1734325;80;21593;-62
2021/09/15 09:50:27;;;;;;;11.28;6.60;;;;;;;22.78;57.79;101222.48;1754288;80;21527;-63
2021/09/15 09:55:37;;;;;;;11.45;6.22;;;;;;;22.85;57.84;101214.67;1696992;83;21048;-62
2021/09/15 09:58:07;;;;;;;8.10;5.97;;;;;;;22.93;57.93;101223.63;1751443;80;21130;-62
2021/09/15 10:03:08;;;;;;;;;;;;;;;23.01;56.99;101217.03;1744485;80;21050;-62
2021/09/15 10:06:02;;;;;;;10.78;5.92;;;;;;;23.02;57.57;101212.81;1735726;80;20503;-62
2021/09/15 10:08:29;;;;;;;14.03;5.78;;;;;;;23.02;56.72;101218.29;1733855;80;21077;-62
2021/09/15 10:10:56;;;;;;;7.80;4.90;;;;;;;23.01;56.89;101211.08;1744513;80;21086;-62
2021/09/15 10:13:24;;;;;;;11.03;4.70;;;;;;;23.05;55.30;101214.41;1698709;82;21936;-61
2021/09/15 10:15:54;;;;;;;8.50;4.62;;;;;;;23.07;54.51;101209.69;1734569;80;21109;-64
2021/09/15 10:18:21;;;;;;;9.23;4.42;;;;;;;23.12;54.99;101210.20;1706262;82;21062;-63
2021/09/15 10:20:53;;;;;;;10.63;4.45;;;;;;;23.20;54.19;101203.23;1701764;84;21089;-62
2021/09/15 10:23:37;;;;;;;6.42;4.00;;;;;;;23.26;52.99;101208.23;1733620;81;21136;-63
2021/09/15 10:26:28;;;;;;;9.50;4.53;;;;;;;23.32;52.04;101202.24;1722365;82;21052;-64
2021/09/15 10:29:18;;;;;;;8.33;3.90;;;;;;;23.37;51.72;101199.13;1727974;81;21073;-63
2021/09/15 10:32:06;;;;;;;7.97;4.55;;;;;;;23.41;51.35;101205.61;1695371;84;21549;-58
2021/09/15 10:34:45;;;;;;;5.15;3.77;;;;;;;23.50;51.26;101197.62;1721802;82;21179;-58
2021/09/15 10:37:33;;;;;;;9.30;4.72;;;;;;;23.60;51.13;101201.34;1697658;83;21824;-58
2021/09/15 10:40:08;;;;;;;5.00;3.60;;;;;;;23.63;50.82;101196.98;1693128;82;21738;-60
2021/09/15 10:42:39;;;;;;;8.18;3.95;;;;;;;23.65;50.37;101196.83;1693269;84;21306;-58
2021/09/15 10:45:31;;;;;;;6.45;3.65;;;;;;;23.67;49.92;101196.23;1704142;82;21036;-57
2021/09/15 10:48:02;;;;;;;5.10;3.40;;;;;;;23.71;50.21;101184.88;1729943;80;21530;-58
2021/09/15 10:50:40;;;;;;;5.37;3.47;;;;;;;23.72;49.17;101182.50;1729777;80;21123;-62
2021/09/15 10:53:30;;;;;;;7.90;3.50;;;;;;;23.78;48.39;101193.44;1724457;81;21045;-59
2021/09/15 10:56:00;;;;;;;7.00;3.27;;;;;;;23.82;47.67;101192.70;1720047;81;21064;-57
2021/09/15 11:01:11;;;;;;;6.65;3.00;;;;;;;23.85;47.85;101186.95;1726938;80;21174;-59
2021/09/15 11:03:59;;;;;;;7.20;2.90;;;;;;;23.87;47.46;101185.84;1728194;81;21133;-62
2021/09/15 11:06:28;;;;;;;5.37;3.40;;;;;;;23.89;47.35;101185.69;1727721;80;21051;-61
2021/09/15 11:11:49;;;;;;;10.13;3.35;;;;;;;23.96;47.72;101170.46;1729973;80;21799;-63
2021/09/15 11:17:26;;;;;;;8.60;3.85;;;;;;;23.90;46.97;101165.52;1672482;83;20964;-58
2021/09/15 11:20:02;;;;;;;6.20;3.70;;;;;;;23.87;46.69;101167.16;1707738;81;21075;-58
2021/09/15 11:22:33;;;;;;;7.60;3.85;;;;;;;23.81;47.03;101163.58;1704128;82;22313;-58
2021/09/15 11:25:00;;;;;;;5.50;3.60;;;;;;;23.86;47.64;101156.69;1778706;78;21547;-57
2021/09/15 11:27:28;;;;;;;7.92;3.90;;;;;;;23.90;47.46;101157.30;1778323;78;21095;-58
2021/09/15 11:29:55;;;;;;;7.00;3.60;;;;;;;23.92;47.01;101156.67;1740338;78;21513;-58
2021/09/15 11:32:23;;;;;;;5.58;3.62;;;;;;;23.98;47.03;101153.91;1779848;78;21031;-62
2021/09/15 11:40:30;;;;;;;9.23;4.22;;;;;;;24.11;46.50;101149.65;1777415;78;21700;-62
2021/09/15 11:43:07;;;;;;;5.78;3.90;;;;;;;24.18;46.76;101142.63;1765907;80;21058;-61
2021/09/15 11:45:34;;;;;;;8.15;3.80;;;;;;;24.24;46.39;101142.11;1771231;80;21070;-59
2021/09/15 11:48:02;;;;;;;7.12;4.00;;;;;;;24.25;46.81;101137.00;1779691;77;21077;-58
2021/09/15 11:50:39;;;;;;;5.92;3.95;;;;;;;24.25;46.82;101131.52;1772141;79;21020;-61
2021/09/15 11:53:13;;;;;;;9.53;4.00;;;;;;;24.23;46.83;101124.43;1766980;79;21078;-66
2021/09/15 11:55:47;;;;;;;5.75;4.10;;;;;;;24.20;47.50;101120.07;1780345;78;21832;-63
2021/09/15 11:58:13;;;;;;;6.70;4.40;;;;;;;24.20;47.29;101126.07;1771108;79;21511;-61
2021/09/15 12:00:54;;;;;;;8.03;4.42;;;;;;;24.21;47.21;101117.73;1774872;78;21130;-60
2021/09/15 12:03:25;;;;;;;22.20;15.32;;;;;;;24.20;47.48;101122.81;1776125;78;21058;-57
2021/09/15 12:05:57;;;;;;;11.80;6.50;;;;;;;24.16;48.30;101117.23;1783695;78;21052;-57
2021/09/15 12:08:26;;;;;;;9.98;4.75;;;;;;;24.14;48.84;101116.52;1779405;78;21176;-57
2021/09/15 12:10:56;;;;;;;11.30;5.35;;;;;;;24.13;49.46;101107.44;1780246;78;21778;-63
2021/09/15 12:13:33;;;;;;;8.45;4.87;;;;;;;24.15;49.75;101105.92;1772439;78;21047;-64
2021/09/15 12:21:30;;;;;;;7.30;4.90;;;;;;;24.00;48.71;101091.18;1769325;79;21106;-63
2021/09/15 12:23:50;;;;;;;6.70;4.45;;;;;;;23.99;48.15;101096.30;1771800;78;21093;-60
2021/09/15 12:29:18;;;;;;;8.18;5.00;;;;;;;24.04;47.34;101093.16;1769526;80;21095;-58
2021/09/15 12:31:50;;;;;;;10.78;4.70;;;;;;;24.03;46.66;101089.58;1767174;79;21105;-58
2021/09/15 12:34:30;;;;;;;7.92;4.50;;;;;;;24.00;46.60;101081.59;1772693;78;21508;-60
2021/09/15 12:37:41;;;;;;;6.95;4.42;;;;;;;24.00;46.29;101078.86;1771291;78;21129;-60
2021/09/15 12:40:12;;;;;;;7.78;4.25;;;;;;;23.98;45.99;101075.36;1770513;79;21133;-58
2021/09/15 12:42:38;;;;;;;7.50;4.60;;;;;;;23.99;46.27;101076.24;1757021;80;20951;-56
2021/09/15 12:45:07;;;;;;;11.70;4.53;;;;;;;24.05;46.41;101081.72;1772276;78;20920;-58
2021/09/15 12:47:46;;;;;;;8.78;4.50;;;;;;;24.08;46.52;101075.97;1729027;80;21144;-56
2021/09/15 12:50:17;;;;;;;7.30;4.95;;;;;;;24.08;46.37;101078.71;1725174;81;21646;-59
2021/09/15 12:52:45;;;;;;;7.92;4.37;;;;;;;24.06;46.17;101076.61;1725550;81;20977;-58
2021/09/15 12:55:18;;;;;;;8.23;4.50;;;;;;;24.03;45.89;101075.88;1721352;81;21082;-56
2021/09/15 12:58:03;;;;;;;7.83;4.50;;;;;;;24.00;45.76;101083.45;1725460;82;21161;-60
2021/09/15 13:00:55;;;;;;;9.88;4.80;;;;;;;24.00;45.94;101077.49;1721201;82;21424;-59
2021/09/15 13:03:22;;;;;;;11.12;4.15;;;;;;;24.00;46.03;101076.12;1718092;82;21035;-57
2021/09/15 13:05:52;;;;;;;9.90;4.37;;;;;;;24.02;46.03;101070.03;1727808;81;21083;-60
2021/09/15 13:08:24;;;;;;;9.08;4.28;;;;;;;24.01;46.16;101072.41;1720067;81;21440;-59
2021/09/15 13:10:54;;;;;;;7.83;4.45;;;;;;;24.02;46.24;101067.30;1722768;81;20932;-59
2021/09/15 13:13:37;;;;;;;9.13;4.40;;;;;;;24.00;46.12;101067.02;1722712;81;21098;-59
2021/09/15 13:18:56;;;;;;;11.87;4.50;;;;;;;23.95;46.55;101063.30;1736903;81;21049;-59
2021/09/15 13:21:25;;;;;;;8.28;5.12;;;;;;;23.94;46.60;101065.68;1734107;81;21557;-60
2021/09/15 13:23:53;;;;;;;11.78;5.83;;;;;;;23.95;46.35;101057.83;1726330;81;21054;-59
2021/09/15 13:26:22;;;;;;;6.45;4.28;;;;;;;23.99;46.11;101063.44;1721651;81;21143;-59
2021/09/15 13:28:48;;;;;;;6.90;4.12;;;;;;;23.99;45.92;101052.48;1717478;81;21165;-60
2021/09/15 13:31:18;;;;;;;11.10;4.37;;;;;;;23.99;45.97;101056.59;1720423;81;21066;-58
2021/09/15 13:33:45;;;;;;;7.28;4.60;;;;;;;23.97;45.98;101050.34;1724811;81;21650;-59
2021/09/15 13:36:12;;;;;;;5.03;4.20;;;;;;;23.97;46.10;101053.60;1721437;81;21453;-60
2021/09/15 13:38:40;;;;;;;7.08;4.17;;;;;;;23.96;46.12;101049.98;1721442;81;21132;-59
2021/09/15 13:41:07;;;;;;;6.25;3.72;;;;;;;23.94;45.96;101045.14;1724215;81;20967;-60
2021/09/15 13:43:34;;;;;;;12.10;5.62;;;;;;;23.92;46.21;101044.41;1722853;80;21233;-58
2021/09/15 13:46:04;;;;;;;12.07;4.42;;;;;;;23.93;46.44;101048.88;1722234;81;21063;-59
2021/09/15 13:48:31;;;;;;;20.37;13.40;;;;;;;23.92;46.56;101043.05;1721499;82;21051;-58
2021/09/15 13:51:00;;;;;;;26.93;18.15;;;;;;;23.89;46.90;101037.84;1722130;81;21129;-58
2021/09/15 13:53:29;;;;;;;6.70;4.83;;;;;;;23.89;47.01;101046.94;1720035;81;21380;-59
2021/09/15 13:56:00;;;;;;;8.75;4.40;;;;;;;23.91;46.68;101040.45;1712112;81;21088;-58
2021/09/15 13:58:27;;;;;;;13.50;4.80;;;;;;;23.91;46.30;101039.94;1728089;81;21089;-57
2021/09/15 14:00:54;;;;;;;8.05;4.30;;;;;;;23.92;46.46;101036.20;1720826;80;21074;-57
2021/09/15 14:03:21;;;;;;;10.55;4.12;;;;;;;23.97;46.69;101032.55;1719256;81;21110;-61
2021/09/15 14:05:49;;;;;;;9.38;4.60;;;;;;;23.98;46.61;101028.80;1668327;82;21108;-59
2021/09/15 14:08:16;;;;;;;9.50;4.20;;;;;;;23.99;46.71;101031.05;1662498;84;21143;-60
2021/09/15 14:10:45;;;;;;;9.23;4.40;;;;;;;24.01;46.86;101031.78;1657291;84;21348;-59
2021/09/15 14:13:31;;;;;;;10.58;4.80;;;;;;;24.00;46.79;101034.16;1689805;83;21096;-58
2021/09/15 14:16:38;;;;;;;8.25;4.70;;;;;;;24.01;46.71;101029.05;1683214;83;21060;-59
2021/09/15 14:21:41;;;;;;;10.53;4.58;;;;;;;23.97;46.48;101031.17;1767877;78;21150;-59
2021/09/15 14:24:09;;;;;;;7.08;4.12;;;;;;;23.91;46.71;101033.09;1797478;78;21553;-60